ADDS METAR Data INFO
IDs: Format: Raw Decoded Include TAF

Data at: 1025 UTC 16 Aug 2018

KABY 160953Z AUTO 00000KT 10SM CLR 24/23 A3014 RMK AO2 SLP202 T02390228